Terminal Aerodrome Forecast
Issued by NWS

Home | Current Version | Previous Version | Text Only | Print | Product List | Glossary On
Versions: 1 2 3 4 5 6 7 8 9 10 11 12 13 14 15
000
FTUS44 KTSA 161100
TAFFYV
TAF
KFYV 161120Z 1612/1712 16007KT P6SM SCT250 WS020/18040KT
     FM161400 19012G20KT P6SM SCT250
     FM161700 18018G25KT P6SM SCT250
     FM170000 17012KT P6SM SCT250
     FM170400 VRB03KT P6SM BKN250=

USA.gov is the U.S. government's official web portal to all federal, state and local government web resources and services.